MOL Modern — V7VS6 — position and weather

sailwx.info

Track history (hours):
 
Tides and Currents Weather Stations Pressure Air Temp Water Temp Dewpoint Dewpoint Depression Visibility Wind Speed Wind Dir Waves Ship Positions

MOL Modern

Last reported at 2016-May-21 03:32 UTC. Time now 2016-May-25 01:29 UTC.
Position N 22°20' E 114°30'.

Length 302 m; draft 11.2 m.

Type: Ship (hazmat cat A). MMSI: 538004203.

Date/timePositionNaut miles runAvg speedWind from/ knotsBaromVisibWave heightAir tempDewpointWater temp
2016-May-21 03:32N 22°20' E 114°30'1212.7
2016-May-21 02:33N 22°09' E 114°26'1211.7
2016-May-21 01:30N 22°08' E 114°13'1010.8
2016-May-21 00:33N 22°17' E 114°06'4 3.1
2016-May-20 23:23N 22°20' E 114°08'0 0.0
2016-May-20 22:32N 22°20' E 114°08'0 0.0
2016-May-20 21:32N 22°20' E 114°08'0 0.0
2016-May-20 20:29N 22°20' E 114°08'0 0.0
2016-May-20 19:23N 22°20' E 114°08'0 0.0
2016-May-20 18:11N 22°20' E 114°08'0 0.0
2016-May-20 17:29N 22°20' E 114°08'0 0.0
2016-May-20 16:29N 22°20' E 114°08'0 0.0
2016-May-20 15:29N 22°20' E 114°08'0 0.0
2016-May-20 14:29N 22°20' E 114°08'0 0.0
2016-May-20 13:32N 22°20' E 114°08'0 0.0
2016-May-20 12:32N 22°20' E 114°08'0 0.0
2016-May-20 11:11N 22°20' E 114°08'0 0.2
2016-May-20 10:33N 22°20' E 114°07'8 6.6
2016-May-20 09:25N 22°13' E 114°10'6 5.9
2016-May-20 08:29N 22°09' E 114°14'3 3.0
2016-May-20 07:23N 22°08' E 114°18'7 7.8
2016-May-20 06:31N 22°06' E 114°25'  
2016-May-16 03:33N 01°15' E 104°05'1313.1
2016-May-16 02:33N 01°14' E 103°52'2 1.9
2016-May-16 01:29N 01°16' E 103°50'0 0.0
2016-May-16 00:32N 01°16' E 103°50'0 0.0
2016-May-15 23:29N 01°16' E 103°50'0 0.0
2016-May-15 22:29N 01°16' E 103°50'0 0.0
2016-May-15 21:32N 01°16' E 103°50'0 0.0
2016-May-15 20:29N 01°16' E 103°50'0 0.0
2016-May-15 19:32N 01°16' E 103°50'0 0.0
2016-May-15 18:29N 01°16' E 103°50'0 0.0
2016-May-15 17:32N 01°16' E 103°50'0 0.0
2016-May-15 16:32N 01°16' E 103°50'0 0.0
2016-May-15 15:29N 01°16' E 103°50'0 0.0
2016-May-15 14:29N 01°16' E 103°50'0 0.0
2016-May-15 13:29N 01°16' E 103°50'0 0.0
2016-May-15 12:30N 01°16' E 103°50'2 1.8
2016-May-15 11:33N 01°15' E 103°52'4 4.1
2016-May-15 10:33N 01°11' E 103°50'10 9.6
2016-May-15 09:33N 01°05' E 103°43'1211.7
2016-May-15 08:33N 01°07' E 103°31'6516.1
2016-May-15 04:31N 01°42' E 102°36'2020.6
2016-May-15 03:33N 01°51' E 102°19'  
Track history (hours):
 
Tides and Currents Weather Stations Pressure Air Temp Water Temp Dewpoint Dewpoint Depression Visibility Wind Speed Wind Dir Waves Ship Positions

MOL Modern

Last reported at 2016-May-21 03:32 UTC. Time now 2016-May-25 01:29 UTC.
Position N 22°20' E 114°30'.

Length 302 m; draft 11.2 m.

Type: Ship (hazmat cat A). MMSI: 538004203.

Date/timePositionNaut miles runAvg speedWind from/ knotsBaromVisibWave heightAir tempDewpointWater temp
2016-May-21 03:32N 22°20' E 114°30'1212.7
2016-May-21 02:33N 22°09' E 114°26'1211.7
2016-May-21 01:30N 22°08' E 114°13'1010.8
2016-May-21 00:33N 22°17' E 114°06'4 3.1
2016-May-20 23:23N 22°20' E 114°08'0 0.0
2016-May-20 22:32N 22°20' E 114°08'0 0.0
2016-May-20 21:32N 22°20' E 114°08'0 0.0
2016-May-20 20:29N 22°20' E 114°08'0 0.0
2016-May-20 19:23N 22°20' E 114°08'0 0.0
2016-May-20 18:11N 22°20' E 114°08'0 0.0
2016-May-20 17:29N 22°20' E 114°08'0 0.0
2016-May-20 16:29N 22°20' E 114°08'0 0.0
2016-May-20 15:29N 22°20' E 114°08'0 0.0
2016-May-20 14:29N 22°20' E 114°08'0 0.0
2016-May-20 13:32N 22°20' E 114°08'0 0.0
2016-May-20 12:32N 22°20' E 114°08'0 0.0
2016-May-20 11:11N 22°20' E 114°08'0 0.2
2016-May-20 10:33N 22°20' E 114°07'8 6.6
2016-May-20 09:25N 22°13' E 114°10'6 5.9
2016-May-20 08:29N 22°09' E 114°14'3 3.0
2016-May-20 07:23N 22°08' E 114°18'7 7.8
2016-May-20 06:31N 22°06' E 114°25'  
2016-May-16 03:33N 01°15' E 104°05'1313.1
2016-May-16 02:33N 01°14' E 103°52'2 1.9
2016-May-16 01:29N 01°16' E 103°50'0 0.0
2016-May-16 00:32N 01°16' E 103°50'0 0.0
2016-May-15 23:29N 01°16' E 103°50'0 0.0
2016-May-15 22:29N 01°16' E 103°50'0 0.0
2016-May-15 21:32N 01°16' E 103°50'0 0.0
2016-May-15 20:29N 01°16' E 103°50'0 0.0
2016-May-15 19:32N 01°16' E 103°50'0 0.0
2016-May-15 18:29N 01°16' E 103°50'0 0.0
2016-May-15 17:32N 01°16' E 103°50'0 0.0
2016-May-15 16:32N 01°16' E 103°50'0 0.0
2016-May-15 15:29N 01°16' E 103°50'0 0.0
2016-May-15 14:29N 01°16' E 103°50'0 0.0
2016-May-15 13:29N 01°16' E 103°50'0 0.0
2016-May-15 12:30N 01°16' E 103°50'2 1.8
2016-May-15 11:33N 01°15' E 103°52'4 4.1
2016-May-15 10:33N 01°11' E 103°50'10 9.6
2016-May-15 09:33N 01°05' E 103°43'1211.7
2016-May-15 08:33N 01°07' E 103°31'6516.1
2016-May-15 04:31N 01°42' E 102°36'2020.6
2016-May-15 03:33N 01°51' E 102°19'  

Dump ship's entire track history